sensor_id;sensor_type;location;lat;lon;timestamp;P1;durP1;ratioP1;P2;durP2;ratioP2
77234;SDS011;66253;50.526;14.974;2023-02-10T00:00:53;24.20;;;8.50;;
77234;SDS011;66253;50.526;14.974;2023-02-10T00:04:19;23.80;;;8.70;;
77234;SDS011;66253;50.526;14.974;2023-02-10T00:11:04;19.90;;;8.30;;
77234;SDS011;66253;50.526;14.974;2023-02-10T00:18:51;23.20;;;8.60;;
77234;SDS011;66253;50.526;14.974;2023-02-10T00:21:08;21.40;;;9.30;;
77234;SDS011;66253;50.526;14.974;2023-02-10T00:27:46;27.20;;;10.40;;
77234;SDS011;66253;50.526;14.974;2023-02-10T00:37:39;18.30;;;7.70;;
77234;SDS011;66253;50.526;14.974;2023-02-10T00:51:19;22.80;;;10.60;;
77234;SDS011;66253;50.526;14.974;2023-02-10T00:53:52;28.10;;;9.40;;
77234;SDS011;66253;50.526;14.974;2023-02-10T01:02:24;17.50;;;6.30;;
77234;SDS011;66253;50.526;14.974;2023-02-10T01:05:32;21.90;;;7.50;;
77234;SDS011;66253;50.526;14.974;2023-02-10T01:08:40;22.10;;;8.20;;
77234;SDS011;66253;50.526;14.974;2023-02-10T01:12:09;16.50;;;5.80;;
77234;SDS011;66253;50.526;14.974;2023-02-10T01:17:58;25.10;;;10.30;;
77234;SDS011;66253;50.526;14.974;2023-02-10T01:20:56;21.30;;;8.50;;
77234;SDS011;66253;50.526;14.974;2023-02-10T01:27:31;27.90;;;10.40;;
77234;SDS011;66253;50.526;14.974;2023-02-10T01:37:16;20.70;;;8.90;;
77234;SDS011;66253;50.526;14.974;2023-02-10T01:47:09;20.00;;;7.70;;
77234;SDS011;66253;50.526;14.974;2023-02-10T01:56:36;22.40;;;8.30;;
77234;SDS011;66253;50.526;14.974;2023-02-10T01:59:36;25.30;;;9.40;;
77234;SDS011;66253;50.526;14.974;2023-02-10T02:13:11;18.50;;;6.40;;
77234;SDS011;66253;50.526;14.974;2023-02-10T02:34:01;17.20;;;5.60;;
77234;SDS011;66253;50.526;14.974;2023-02-10T02:40:36;16.10;;;5.90;;
77234;SDS011;66253;50.526;14.974;2023-02-10T02:44:05;12.30;;;4.80;;
77234;SDS011;66253;50.526;14.974;2023-02-10T02:47:13;17.80;;;6.00;;
77234;SDS011;66253;50.526;14.974;2023-02-10T02:53:05;27.20;;;9.20;;
77234;SDS011;66253;50.526;14.974;2023-02-10T03:06:37;15.90;;;5.60;;
77234;SDS011;66253;50.526;14.974;2023-02-10T03:20:29;13.40;;;5.20;;
77234;SDS011;66253;50.526;14.974;2023-02-10T03:23:22;16.80;;;6.00;;
77234;SDS011;66253;50.526;14.974;2023-02-10T03:26:37;15.70;;;4.50;;
77234;SDS011;66253;50.526;14.974;2023-02-10T03:30:12;18.90;;;6.00;;
77234;SDS011;66253;50.526;14.974;2023-02-10T03:40:42;12.00;;;4.20;;
77234;SDS011;66253;50.526;14.974;2023-02-10T03:47:09;14.70;;;6.90;;
77234;SDS011;66253;50.526;14.974;2023-02-10T03:50:00;19.80;;;7.20;;
77234;SDS011;66253;50.526;14.974;2023-02-10T03:56:50;13.00;;;5.30;;
77234;SDS011;66253;50.526;14.974;2023-02-10T04:02:40;18.10;;;7.70;;
77234;SDS011;66253;50.526;14.974;2023-02-10T04:05:22;21.30;;;7.10;;
77234;SDS011;66253;50.526;14.974;2023-02-10T04:15:40;15.30;;;6.60;;
77234;SDS011;66253;50.526;14.974;2023-02-10T04:25:31;18.30;;;7.00;;
77234;SDS011;66253;50.526;14.974;2023-02-10T04:31:16;16.90;;;7.10;;
77234;SDS011;66253;50.526;14.974;2023-02-10T04:34:59;16.10;;;5.70;;
77234;SDS011;66253;50.526;14.974;2023-02-10T09:17:59;37.70;;;18.50;;
77234;SDS011;66253;50.526;14.974;2023-02-10T09:20:25;36.70;;;15.90;;
77234;SDS011;66253;50.526;14.974;2023-02-10T09:22:51;38.60;;;17.00;;
77234;SDS011;66253;50.526;14.974;2023-02-10T09:25:17;32.40;;;15.80;;
77234;SDS011;66253;50.526;14.974;2023-02-10T09:27:52;58.40;;;28.20;;
77234;SDS011;66253;50.526;14.974;2023-02-10T09:30:29;145.40;;;59.60;;
77234;SDS011;66253;50.526;14.974;2023-02-10T09:35:44;37.00;;;15.90;;
77234;SDS011;66253;50.526;14.974;2023-02-10T09:38:10;30.70;;;14.10;;
77234;SDS011;66253;50.526;14.974;2023-02-10T09:54:24;31.80;;;14.20;;
77234;SDS011;66253;50.526;14.974;2023-02-10T09:57:19;34.60;;;12.90;;
77234;SDS011;66253;50.526;14.974;2023-02-10T09:59:49;28.80;;;14.50;;
77234;SDS011;66253;50.526;14.974;2023-02-10T10:02:31;29.00;;;13.00;;
77234;SDS011;66253;50.526;14.974;2023-02-10T10:05:05;29.10;;;14.50;;
77234;SDS011;66253;50.526;14.974;2023-02-10T10:07:45;26.90;;;14.00;;
77234;SDS011;66253;50.526;14.974;2023-02-10T10:18:39;39.60;;;18.20;;
77234;SDS011;66253;50.526;14.974;2023-02-10T10:21:32;38.60;;;17.70;;
77234;SDS011;66253;50.526;14.974;2023-02-10T10:24:27;71.50;;;30.70;;
77234;SDS011;66253;50.526;14.974;2023-02-10T10:27:33;36.90;;;19.10;;
77234;SDS011;66253;50.526;14.974;2023-02-10T10:30:35;36.60;;;16.50;;
77234;SDS011;66253;50.526;14.974;2023-02-10T10:36:02;33.80;;;16.60;;
77234;SDS011;66253;50.526;14.974;2023-02-10T10:39:08;33.90;;;18.20;;
77234;SDS011;66253;50.526;14.974;2023-02-10T10:48:31;35.20;;;14.80;;
77234;SDS011;66253;50.526;14.974;2023-02-10T10:51:12;40.60;;;18.60;;
77234;SDS011;66253;50.526;14.974;2023-02-10T10:54:02;36.10;;;16.50;;
77234;SDS011;66253;50.526;14.974;2023-02-10T10:59:25;51.60;;;20.30;;
77234;SDS011;66253;50.526;14.974;2023-02-10T11:02:21;36.40;;;15.90;;
77234;SDS011;66253;50.526;14.974;2023-02-10T11:05:08;37.30;;;15.90;;
77234;SDS011;66253;50.526;14.974;2023-02-10T11:07:41;36.80;;;17.30;;
77234;SDS011;66253;50.526;14.974;2023-02-10T11:10:24;39.80;;;17.70;;
77234;SDS011;66253;50.526;14.974;2023-02-10T11:13:18;44.60;;;20.70;;
77234;SDS011;66253;50.526;14.974;2023-02-10T11:18:22;98.90;;;41.40;;
77234;SDS011;66253;50.526;14.974;2023-02-10T11:20:56;58.50;;;25.30;;
77234;SDS011;66253;50.526;14.974;2023-02-10T11:23:29;43.40;;;20.40;;
77234;SDS011;66253;50.526;14.974;2023-02-10T11:25:57;37.00;;;19.30;;
77234;SDS011;66253;50.526;14.974;2023-02-10T11:28:26;37.70;;;18.20;;
77234;SDS011;66253;50.526;14.974;2023-02-10T11:31:40;43.60;;;20.00;;
77234;SDS011;66253;50.526;14.974;2023-02-10T11:34:37;43.60;;;19.00;;
77234;SDS011;66253;50.526;14.974;2023-02-10T11:36:47;44.00;;;18.90;;
77234;SDS011;66253;50.526;14.974;2023-02-10T11:39:20;46.50;;;22.70;;
77234;SDS011;66253;50.526;14.974;2023-02-10T11:41:48;41.90;;;20.70;;
77234;SDS011;66253;50.526;14.974;2023-02-10T11:44:25;41.10;;;19.50;;
77234;SDS011;66253;50.526;14.974;2023-02-10T11:47:00;34.40;;;16.40;;
77234;SDS011;66253;50.526;14.974;2023-02-10T11:49:37;36.30;;;18.90;;
77234;SDS011;66253;50.526;14.974;2023-02-10T12:02:12;38.00;;;17.60;;
77234;SDS011;66253;50.526;14.974;2023-02-10T12:08:05;40.50;;;21.40;;
77234;SDS011;66253;50.526;14.974;2023-02-10T12:10:47;38.20;;;16.90;;
77234;SDS011;66253;50.526;14.974;2023-02-10T12:14:13;38.80;;;17.20;;
77234;SDS011;66253;50.526;14.974;2023-02-10T12:16:24;37.40;;;21.30;;
77234;SDS011;66253;50.526;14.974;2023-02-10T12:18:55;63.20;;;28.20;;
77234;SDS011;66253;50.526;14.974;2023-02-10T12:26:41;35.00;;;16.70;;
77234;SDS011;66253;50.526;14.974;2023-02-10T12:29:21;36.20;;;17.00;;
77234;SDS011;66253;50.526;14.974;2023-02-10T12:31:57;43.40;;;20.80;;
77234;SDS011;66253;50.526;14.974;2023-02-10T12:34:53;38.80;;;17.40;;
77234;SDS011;66253;50.526;14.974;2023-02-10T12:37:25;33.60;;;16.40;;
77234;SDS011;66253;50.526;14.974;2023-02-10T12:45:33;38.70;;;18.80;;
77234;SDS011;66253;50.526;14.974;2023-02-10T12:53:50;32.80;;;17.30;;
77234;SDS011;66253;50.526;14.974;2023-02-10T12:56:28;40.80;;;18.00;;
77234;SDS011;66253;50.526;14.974;2023-02-10T12:59:06;39.00;;;18.80;;
77234;SDS011;66253;50.526;14.974;2023-02-10T13:04:54;42.20;;;19.00;;
77234;SDS011;66253;50.526;14.974;2023-02-10T13:10:39;38.10;;;17.70;;
77234;SDS011;66253;50.526;14.974;2023-02-10T13:13:34;33.40;;;16.70;;
77234;SDS011;66253;50.526;14.974;2023-02-10T13:16:06;37.50;;;17.20;;
77234;SDS011;66253;50.526;14.974;2023-02-10T13:18:39;33.30;;;15.10;;
77234;SDS011;66253;50.526;14.974;2023-02-10T13:21:18;33.60;;;16.10;;
77234;SDS011;66253;50.526;14.974;2023-02-10T13:24:06;37.20;;;19.90;;
77234;SDS011;66253;50.526;14.974;2023-02-10T13:29:50;34.20;;;16.00;;
77234;SDS011;66253;50.526;14.974;2023-02-10T13:35:28;60.60;;;27.40;;
77234;SDS011;66253;50.526;14.974;2023-02-10T13:37:57;39.60;;;20.20;;
77234;SDS011;66253;50.526;14.974;2023-02-10T13:40:53;34.90;;;16.30;;
77234;SDS011;66253;50.526;14.974;2023-02-10T13:43:39;34.80;;;15.50;;
77234;SDS011;66253;50.526;14.974;2023-02-10T13:46:05;35.50;;;16.70;;
77234;SDS011;66253;50.526;14.974;2023-02-10T13:48:44;36.30;;;17.60;;
77234;SDS011;66253;50.526;14.974;2023-02-10T13:51:16;35.60;;;17.40;;
77234;SDS011;66253;50.526;14.974;2023-02-10T13:53:46;39.50;;;17.80;;
77234;SDS011;66253;50.526;14.974;2023-02-10T13:59:00;37.90;;;16.40;;
77234;SDS011;66253;50.526;14.974;2023-02-10T14:01:42;34.00;;;16.30;;
77234;SDS011;66253;50.526;14.974;2023-02-10T14:06:45;36.60;;;16.80;;
77234;SDS011;66253;50.526;14.974;2023-02-10T14:11:57;31.90;;;14.80;;
77234;SDS011;66253;50.526;14.974;2023-02-10T14:20:15;34.30;;;15.00;;
77234;SDS011;66253;50.526;14.974;2023-02-10T14:26:38;32.70;;;14.30;;
77234;SDS011;66253;50.526;14.974;2023-02-10T14:31:52;43.80;;;19.50;;
77234;SDS011;66253;50.526;14.974;2023-02-10T14:40:04;38.50;;;17.70;;
77234;SDS011;66253;50.526;14.974;2023-02-10T14:42:44;36.80;;;15.60;;
77234;SDS011;66253;50.526;14.974;2023-02-10T14:45:20;48.30;;;22.40;;
77234;SDS011;66253;50.526;14.974;2023-02-10T14:47:49;38.00;;;17.50;;
77234;SDS011;66253;50.526;14.974;2023-02-10T14:50:31;45.00;;;21.70;;
77234;SDS011;66253;50.526;14.974;2023-02-10T14:53:01;32.40;;;14.70;;
77234;SDS011;66253;50.526;14.974;2023-02-10T14:55:34;32.30;;;15.80;;
77234;SDS011;66253;50.526;14.974;2023-02-10T14:58:20;27.20;;;12.60;;
77234;SDS011;66253;50.526;14.974;2023-02-10T15:01:01;35.70;;;16.20;;
77234;SDS011;66253;50.526;14.974;2023-02-10T15:03:35;39.80;;;19.90;;
77234;SDS011;66253;50.526;14.974;2023-02-10T15:06:01;38.20;;;18.10;;
77234;SDS011;66253;50.526;14.974;2023-02-10T15:11:07;34.00;;;14.90;;
77234;SDS011;66253;50.526;14.974;2023-02-10T15:13:40;36.10;;;16.10;;
77234;SDS011;66253;50.526;14.974;2023-02-10T15:16:14;28.90;;;14.00;;
77234;SDS011;66253;50.526;14.974;2023-02-10T15:18:46;34.70;;;16.30;;
77234;SDS011;66253;50.526;14.974;2023-02-10T15:21:28;37.10;;;16.90;;
77234;SDS011;66253;50.526;14.974;2023-02-10T15:24:01;34.90;;;16.40;;
77234;SDS011;66253;50.526;14.974;2023-02-10T15:26:33;33.80;;;14.50;;
77234;SDS011;66253;50.526;14.974;2023-02-10T15:29:12;34.00;;;18.00;;
77234;SDS011;66253;50.526;14.974;2023-02-10T15:31:50;51.20;;;20.30;;
77234;SDS011;66253;50.526;14.974;2023-02-10T15:34:29;48.00;;;20.20;;
77234;SDS011;66253;50.526;14.974;2023-02-10T15:37:04;34.60;;;15.30;;
77234;SDS011;66253;50.526;14.974;2023-02-10T15:39:42;32.20;;;15.10;;
77234;SDS011;66253;50.526;14.974;2023-02-10T15:44:45;33.70;;;15.90;;
77234;SDS011;66253;50.526;14.974;2023-02-10T15:50:15;30.80;;;13.80;;
77234;SDS011;66253;50.526;14.974;2023-02-10T15:52:59;31.80;;;14.90;;
77234;SDS011;66253;50.526;14.974;2023-02-10T15:55:44;32.70;;;14.70;;
77234;SDS011;66253;50.526;14.974;2023-02-10T15:58:10;31.30;;;14.50;;
77234;SDS011;66253;50.526;14.974;2023-02-10T16:00:54;38.00;;;16.90;;
77234;SDS011;66253;50.526;14.974;2023-02-10T16:03:20;32.00;;;16.10;;
77234;SDS011;66253;50.526;14.974;2023-02-10T16:05:48;33.50;;;15.00;;
77234;SDS011;66253;50.526;14.974;2023-02-10T16:08:19;32.20;;;15.40;;
77234;SDS011;66253;50.526;14.974;2023-02-10T16:10:53;33.40;;;14.90;;
77234;SDS011;66253;50.526;14.974;2023-02-10T16:13:20;34.40;;;17.00;;
77234;SDS011;66253;50.526;14.974;2023-02-10T16:15:49;36.40;;;16.10;;
77234;SDS011;66253;50.526;14.974;2023-02-10T16:18:33;35.10;;;16.50;;
77234;SDS011;66253;50.526;14.974;2023-02-10T16:21:02;48.00;;;21.60;;
77234;SDS011;66253;50.526;14.974;2023-02-10T16:23:34;40.60;;;19.80;;
77234;SDS011;66253;50.526;14.974;2023-02-10T16:29:37;33.30;;;15.50;;
77234;SDS011;66253;50.526;14.974;2023-02-10T16:36:50;31.50;;;14.70;;
77234;SDS011;66253;50.526;14.974;2023-02-10T16:39:43;34.40;;;16.40;;
77234;SDS011;66253;50.526;14.974;2023-02-10T16:42:15;37.10;;;15.60;;
77234;SDS011;66253;50.526;14.974;2023-02-10T16:44:53;35.60;;;16.40;;
77234;SDS011;66253;50.526;14.974;2023-02-10T16:47:19;40.00;;;16.40;;
77234;SDS011;66253;50.526;14.974;2023-02-10T16:50:10;37.30;;;15.70;;
77234;SDS011;66253;50.526;14.974;2023-02-10T16:52:52;37.50;;;16.20;;
77234;SDS011;66253;50.526;14.974;2023-02-10T16:55:21;37.20;;;15.90;;
77234;SDS011;66253;50.526;14.974;2023-02-10T16:57:55;40.60;;;16.90;;
77234;SDS011;66253;50.526;14.974;2023-02-10T17:00:33;41.10;;;17.30;;
77234;SDS011;66253;50.526;14.974;2023-02-10T17:03:11;37.20;;;18.20;;
77234;SDS011;66253;50.526;14.974;2023-02-10T17:06:04;41.20;;;16.10;;
77234;SDS011;66253;50.526;14.974;2023-02-10T17:12:10;37.30;;;16.30;;
77234;SDS011;66253;50.526;14.974;2023-02-10T17:14:58;41.80;;;17.30;;
77234;SDS011;66253;50.526;14.974;2023-02-10T17:17:33;35.20;;;16.20;;
77234;SDS011;66253;50.526;14.974;2023-02-10T17:20:03;39.30;;;15.80;;
77234;SDS011;66253;50.526;14.974;2023-02-10T17:28:01;39.70;;;17.80;;
77234;SDS011;66253;50.526;14.974;2023-02-10T17:30:37;41.40;;;17.10;;
77234;SDS011;66253;50.526;14.974;2023-02-10T17:33:08;35.80;;;16.20;;
77234;SDS011;66253;50.526;14.974;2023-02-10T17:35:50;38.30;;;16.60;;
77234;SDS011;66253;50.526;14.974;2023-02-10T17:38:22;40.10;;;16.90;;
77234;SDS011;66253;50.526;14.974;2023-02-10T17:41:13;43.70;;;17.50;;
77234;SDS011;66253;50.526;14.974;2023-02-10T17:43:46;39.70;;;17.10;;
77234;SDS011;66253;50.526;14.974;2023-02-10T17:46:45;36.40;;;16.50;;
77234;SDS011;66253;50.526;14.974;2023-02-10T17:49:24;37.00;;;15.50;;
77234;SDS011;66253;50.526;14.974;2023-02-10T17:52:03;36.70;;;16.60;;
77234;SDS011;66253;50.526;14.974;2023-02-10T17:54:57;40.60;;;19.10;;
77234;SDS011;66253;50.526;14.974;2023-02-10T17:57:51;41.20;;;17.10;;
77234;SDS011;66253;50.526;14.974;2023-02-10T18:00:22;35.30;;;16.50;;
77234;SDS011;66253;50.526;14.974;2023-02-10T18:03:08;40.10;;;15.50;;
77234;SDS011;66253;50.526;14.974;2023-02-10T18:05:46;41.10;;;16.10;;
77234;SDS011;66253;50.526;14.974;2023-02-10T18:11:22;35.60;;;16.30;;
77234;SDS011;66253;50.526;14.974;2023-02-10T18:14:06;35.90;;;16.10;;
77234;SDS011;66253;50.526;14.974;2023-02-10T18:16:54;35.60;;;16.40;;
77234;SDS011;66253;50.526;14.974;2023-02-10T18:22:18;43.20;;;18.70;;
77234;SDS011;66253;50.526;14.974;2023-02-10T18:24:56;42.90;;;16.90;;
77234;SDS011;66253;50.526;14.974;2023-02-10T18:27:39;43.30;;;18.80;;
77234;SDS011;66253;50.526;14.974;2023-02-10T18:33:57;48.60;;;19.80;;
77234;SDS011;66253;50.526;14.974;2023-02-10T18:40:31;61.80;;;24.90;;
77234;SDS011;66253;50.526;14.974;2023-02-10T18:43:34;43.70;;;19.00;;
77234;SDS011;66253;50.526;14.974;2023-02-10T18:46:02;43.50;;;19.00;;
77234;SDS011;66253;50.526;14.974;2023-02-10T18:48:28;45.10;;;20.40;;
77234;SDS011;66253;50.526;14.974;2023-02-10T18:50:57;61.60;;;25.70;;
77234;SDS011;66253;50.526;14.974;2023-02-10T18:53:32;60.70;;;24.50;;
77234;SDS011;66253;50.526;14.974;2023-02-10T18:56:09;52.50;;;22.60;;
77234;SDS011;66253;50.526;14.974;2023-02-10T18:58:39;50.80;;;23.80;;
77234;SDS011;66253;50.526;14.974;2023-02-10T19:01:10;55.40;;;23.00;;
77234;SDS011;66253;50.526;14.974;2023-02-10T19:03:38;52.10;;;22.80;;
77234;SDS011;66253;50.526;14.974;2023-02-10T19:06:05;47.30;;;20.70;;
77234;SDS011;66253;50.526;14.974;2023-02-10T19:08:50;55.00;;;25.90;;
77234;SDS011;66253;50.526;14.974;2023-02-10T19:11:16;45.80;;;19.00;;
77234;SDS011;66253;50.526;14.974;2023-02-10T19:13:51;44.50;;;21.50;;
77234;SDS011;66253;50.526;14.974;2023-02-10T19:16:24;43.80;;;18.90;;
77234;SDS011;66253;50.526;14.974;2023-02-10T19:18:53;43.00;;;20.40;;
77234;SDS011;66253;50.526;14.974;2023-02-10T19:21:21;47.10;;;18.90;;
77234;SDS011;66253;50.526;14.974;2023-02-10T19:23:50;51.80;;;19.70;;
77234;SDS011;66253;50.526;14.974;2023-02-10T19:26:41;47.50;;;19.60;;
77234;SDS011;66253;50.526;14.974;2023-02-10T19:29:10;44.80;;;21.10;;
77234;SDS011;66253;50.526;14.974;2023-02-10T19:31:44;50.70;;;20.60;;
77234;SDS011;66253;50.526;14.974;2023-02-10T19:34:33;51.10;;;21.40;;
77234;SDS011;66253;50.526;14.974;2023-02-10T19:37:04;44.30;;;18.40;;
77234;SDS011;66253;50.526;14.974;2023-02-10T19:39:58;47.50;;;18.90;;
77234;SDS011;66253;50.526;14.974;2023-02-10T19:42:24;43.00;;;18.90;;
77234;SDS011;66253;50.526;14.974;2023-02-10T19:44:59;46.80;;;19.80;;
77234;SDS011;66253;50.526;14.974;2023-02-10T19:47:32;48.10;;;19.90;;
77234;SDS011;66253;50.526;14.974;2023-02-10T19:50:11;43.90;;;18.50;;
77234;SDS011;66253;50.526;14.974;2023-02-10T19:58:05;47.50;;;20.40;;
77234;SDS011;66253;50.526;14.974;2023-02-10T20:00:35;40.00;;;17.50;;
77234;SDS011;66253;50.526;14.974;2023-02-10T20:03:01;49.10;;;20.20;;
77234;SDS011;66253;50.526;14.974;2023-02-10T20:05:36;43.10;;;19.90;;
77234;SDS011;66253;50.526;14.974;2023-02-10T20:08:07;45.90;;;19.10;;
77234;SDS011;66253;50.526;14.974;2023-02-10T20:13:20;42.10;;;17.60;;
77234;SDS011;66253;50.526;14.974;2023-02-10T20:15:54;41.70;;;18.20;;
77234;SDS011;66253;50.526;14.974;2023-02-10T20:18:28;48.30;;;20.90;;
77234;SDS011;66253;50.526;14.974;2023-02-10T20:20:55;57.50;;;25.10;;
77234;SDS011;66253;50.526;14.974;2023-02-10T20:23:35;60.10;;;29.20;;
77234;SDS011;66253;50.526;14.974;2023-02-10T20:26:14;62.90;;;27.80;;
77234;SDS011;66253;50.526;14.974;2023-02-10T20:28:41;69.60;;;29.70;;
77234;SDS011;66253;50.526;14.974;2023-02-10T20:31:09;62.80;;;26.10;;
77234;SDS011;66253;50.526;14.974;2023-02-10T20:33:39;60.20;;;25.30;;
77234;SDS011;66253;50.526;14.974;2023-02-10T20:40:14;63.10;;;24.00;;
77234;SDS011;66253;50.526;14.974;2023-02-10T20:42:50;83.30;;;34.00;;
77234;SDS011;66253;50.526;14.974;2023-02-10T20:45:20;96.20;;;38.30;;
77234;SDS011;66253;50.526;14.974;2023-02-10T20:47:46;80.10;;;31.40;;
77234;SDS011;66253;50.526;14.974;2023-02-10T20:50:14;70.40;;;28.90;;
77234;SDS011;66253;50.526;14.974;2023-02-10T20:52:44;75.70;;;30.80;;
77234;SDS011;66253;50.526;14.974;2023-02-10T20:55:14;60.00;;;25.90;;
77234;SDS011;66253;50.526;14.974;2023-02-10T20:57:45;64.00;;;27.10;;
77234;SDS011;66253;50.526;14.974;2023-02-10T21:00:11;86.40;;;33.40;;
77234;SDS011;66253;50.526;14.974;2023-02-10T21:06:15;95.10;;;37.70;;
77234;SDS011;66253;50.526;14.974;2023-02-10T21:08:59;73.30;;;29.00;;
77234;SDS011;66253;50.526;14.974;2023-02-10T21:11:28;72.40;;;29.00;;
77234;SDS011;66253;50.526;14.974;2023-02-10T21:13:57;73.30;;;30.70;;
77234;SDS011;66253;50.526;14.974;2023-02-10T21:16:23;76.30;;;34.20;;
77234;SDS011;66253;50.526;14.974;2023-02-10T21:18:53;69.00;;;26.40;;
77234;SDS011;66253;50.526;14.974;2023-02-10T21:21:31;75.70;;;33.10;;
77234;SDS011;66253;50.526;14.974;2023-02-10T21:24:09;72.70;;;30.90;;
77234;SDS011;66253;50.526;14.974;2023-02-10T21:26:49;73.90;;;31.30;;
77234;SDS011;66253;50.526;14.974;2023-02-10T21:29:17;88.80;;;34.80;;
77234;SDS011;66253;50.526;14.974;2023-02-10T21:31:45;78.60;;;29.90;;
77234;SDS011;66253;50.526;14.974;2023-02-10T21:34:11;74.10;;;29.00;;
77234;SDS011;66253;50.526;14.974;2023-02-10T21:36:45;78.50;;;30.60;;
77234;SDS011;66253;50.526;14.974;2023-02-10T21:39:20;109.70;;;39.30;;
77234;SDS011;66253;50.526;14.974;2023-02-10T21:41:55;79.30;;;31.50;;
77234;SDS011;66253;50.526;14.974;2023-02-10T21:44:49;68.40;;;28.20;;
77234;SDS011;66253;50.526;14.974;2023-02-10T21:47:20;61.90;;;25.30;;
77234;SDS011;66253;50.526;14.974;2023-02-10T21:50:18;58.90;;;24.90;;
77234;SDS011;66253;50.526;14.974;2023-02-10T21:52:44;60.70;;;25.70;;
77234;SDS011;66253;50.526;14.974;2023-02-10T21:55:13;58.40;;;25.50;;
77234;SDS011;66253;50.526;14.974;2023-02-10T21:57:48;62.30;;;25.70;;
77234;SDS011;66253;50.526;14.974;2023-02-10T22:00:31;119.90;;;41.30;;
77234;SDS011;66253;50.526;14.974;2023-02-10T22:03:07;184.90;;;63.00;;
77234;SDS011;66253;50.526;14.974;2023-02-10T22:05:56;108.70;;;39.70;;
77234;SDS011;66253;50.526;14.974;2023-02-10T22:08:24;104.80;;;38.80;;
77234;SDS011;66253;50.526;14.974;2023-02-10T22:10:53;139.50;;;47.10;;
77234;SDS011;66253;50.526;14.974;2023-02-10T22:13:22;139.90;;;47.90;;
77234;SDS011;66253;50.526;14.974;2023-02-10T22:16:01;108.30;;;39.20;;
77234;SDS011;66253;50.526;14.974;2023-02-10T22:18:30;83.70;;;32.40;;
77234;SDS011;66253;50.526;14.974;2023-02-10T22:21:08;92.80;;;32.80;;
77234;SDS011;66253;50.526;14.974;2023-02-10T22:23:39;92.30;;;34.60;;
77234;SDS011;66253;50.526;14.974;2023-02-10T22:26:06;92.30;;;34.80;;
77234;SDS011;66253;50.526;14.974;2023-02-10T22:40:06;57.30;;;22.50;;
77234;SDS011;66253;50.526;14.974;2023-02-10T22:47:51;55.10;;;22.00;;
77234;SDS011;66253;50.526;14.974;2023-02-10T22:50:28;57.20;;;23.20;;
77234;SDS011;66253;50.526;14.974;2023-02-10T22:53:04;59.40;;;25.30;;
77234;SDS011;66253;50.526;14.974;2023-02-10T22:58:14;50.40;;;20.20;;
77234;SDS011;66253;50.526;14.974;2023-02-10T23:00:45;66.90;;;27.60;;
77234;SDS011;66253;50.526;14.974;2023-02-10T23:03:22;57.80;;;23.60;;
77234;SDS011;66253;50.526;14.974;2023-02-10T23:05:47;68.80;;;25.70;;
77234;SDS011;66253;50.526;14.974;2023-02-10T23:08:38;63.10;;;23.80;;
77234;SDS011;66253;50.526;14.974;2023-02-10T23:11:07;56.60;;;23.10;;
77234;SDS011;66253;50.526;14.974;2023-02-10T23:13:44;56.50;;;24.50;;
77234;SDS011;66253;50.526;14.974;2023-02-10T23:16:15;60.50;;;24.60;;
77234;SDS011;66253;50.526;14.974;2023-02-10T23:18:53;82.20;;;28.90;;
77234;SDS011;66253;50.526;14.974;2023-02-10T23:21:22;78.40;;;29.00;;
77234;SDS011;66253;50.526;14.974;2023-02-10T23:23:54;80.90;;;28.50;;
77234;SDS011;66253;50.526;14.974;2023-02-10T23:26:28;87.00;;;29.60;;
77234;SDS011;66253;50.526;14.974;2023-02-10T23:29:08;69.80;;;28.10;;
77234;SDS011;66253;50.526;14.974;2023-02-10T23:31:55;72.20;;;26.70;;
77234;SDS011;66253;50.526;14.974;2023-02-10T23:34:23;66.20;;;26.10;;
77234;SDS011;66253;50.526;14.974;2023-02-10T23:36:54;59.50;;;23.70;;
77234;SDS011;66253;50.526;14.974;2023-02-10T23:39:25;59.20;;;25.10;;
77234;SDS011;66253;50.526;14.974;2023-02-10T23:42:00;57.30;;;23.80;;
77234;SDS011;66253;50.526;14.974;2023-02-10T23:44:29;63.10;;;23.80;;
77234;SDS011;66253;50.526;14.974;2023-02-10T23:46:58;66.70;;;25.50;;
77234;SDS011;66253;50.526;14.974;2023-02-10T23:49:30;65.50;;;26.60;;
77234;SDS011;66253;50.526;14.974;2023-02-10T23:52:19;63.10;;;25.00;;
77234;SDS011;66253;50.526;14.974;2023-02-10T23:55:11;61.00;;;23.50;;
77234;SDS011;66253;50.526;14.974;2023-02-10T23:57:41;64.20;;;26.20;;
